sensor_id;sensor_type;location;lat;lon;timestamp;pressure;altitude;pressure_sealevel;temperature;humidity
41684;BME280;27369;52.030;4.586;2022-09-12T00:01:19;-20807.34;;;-144.41;100.00
41684;BME280;27369;52.030;4.586;2022-09-12T00:03:45;-20807.34;;;-144.41;100.00
41684;BME280;27369;52.030;4.586;2022-09-12T00:06:18;-20807.34;;;-144.41;100.00
41684;BME280;27369;52.030;4.586;2022-09-12T00:08:44;-20807.34;;;-144.41;100.00
41684;BME280;27369;52.030;4.586;2022-09-12T00:11:11;-20807.34;;;-144.41;100.00
41684;BME280;27369;52.030;4.586;2022-09-12T00:13:37;-20807.34;;;-144.41;100.00
41684;BME280;27369;52.030;4.586;2022-09-12T00:16:04;-20807.34;;;-144.41;100.00
41684;BME280;27369;52.030;4.586;2022-09-12T00:18:30;-20807.34;;;-144.41;100.00
41684;BME280;27369;52.030;4.586;2022-09-12T00:20:56;-20807.34;;;-144.41;100.00
41684;BME280;27369;52.030;4.586;2022-09-12T00:23:21;-20807.34;;;-144.41;100.00
41684;BME280;27369;52.030;4.586;2022-09-12T00:25:47;-20807.34;;;-144.41;100.00
41684;BME280;27369;52.030;4.586;2022-09-12T00:28:14;-20807.34;;;-144.41;100.00
41684;BME280;27369;52.030;4.586;2022-09-12T00:30:44;-20807.34;;;-144.41;100.00
41684;BME280;27369;52.030;4.586;2022-09-12T00:33:10;-20807.34;;;-144.41;100.00
41684;BME280;27369;52.030;4.586;2022-09-12T00:35:44;-20807.34;;;-144.41;100.00
41684;BME280;27369;52.030;4.586;2022-09-12T00:38:11;-20807.34;;;-144.41;100.00
41684;BME280;27369;52.030;4.586;2022-09-12T00:40:37;-20807.34;;;-144.41;100.00
41684;BME280;27369;52.030;4.586;2022-09-12T00:43:03;-20807.34;;;-144.41;100.00
41684;BME280;27369;52.030;4.586;2022-09-12T00:45:30;-20807.34;;;-144.41;100.00
41684;BME280;27369;52.030;4.586;2022-09-12T00:47:57;-20807.34;;;-144.41;100.00
41684;BME280;27369;52.030;4.586;2022-09-12T00:50:26;-20807.34;;;-144.41;100.00
41684;BME280;27369;52.030;4.586;2022-09-12T00:52:56;-20807.34;;;-144.41;100.00
41684;BME280;27369;52.030;4.586;2022-09-12T00:55:25;-20807.34;;;-144.41;100.00
41684;BME280;27369;52.030;4.586;2022-09-12T01:00:30;-20807.34;;;-144.41;100.00
41684;BME280;27369;52.030;4.586;2022-09-12T01:03:01;-20807.34;;;-144.41;100.00
41684;BME280;27369;52.030;4.586;2022-09-12T01:05:30;-20807.34;;;-144.41;100.00
41684;BME280;27369;52.030;4.586;2022-09-12T01:08:00;-20807.34;;;-144.41;100.00
41684;BME280;27369;52.030;4.586;2022-09-12T01:10:26;-20807.34;;;-144.41;100.00
41684;BME280;27369;52.030;4.586;2022-09-12T01:12:52;-20807.34;;;-144.41;100.00
41684;BME280;27369;52.030;4.586;2022-09-12T01:15:18;-20807.34;;;-144.41;100.00
41684;BME280;27369;52.030;4.586;2022-09-12T01:34:23;-20807.34;;;-144.41;100.00
41684;BME280;27369;52.030;4.586;2022-09-12T01:37:24;-20807.34;;;-144.41;100.00
41684;BME280;27369;52.030;4.586;2022-09-12T01:46:18;-20807.34;;;-144.41;100.00
41684;BME280;27369;52.030;4.586;2022-09-12T01:49:02;-20807.34;;;-144.41;100.00
41684;BME280;27369;52.030;4.586;2022-09-12T01:51:37;-20807.34;;;-144.41;100.00
41684;BME280;27369;52.030;4.586;2022-09-12T01:54:18;-20807.34;;;-144.41;100.00
41684;BME280;27369;52.030;4.586;2022-09-12T01:56:46;-20807.34;;;-144.41;100.00
41684;BME280;27369;52.030;4.586;2022-09-12T01:59:41;-20807.34;;;-144.41;100.00
41684;BME280;27369;52.030;4.586;2022-09-12T02:02:13;-20807.34;;;-144.41;100.00
41684;BME280;27369;52.030;4.586;2022-09-12T02:04:45;-20807.34;;;-144.41;100.00
41684;BME280;27369;52.030;4.586;2022-09-12T02:07:27;-20807.34;;;-144.41;100.00
41684;BME280;27369;52.030;4.586;2022-09-12T02:09:59;-20807.34;;;-144.41;100.00
41684;BME280;27369;52.030;4.586;2022-09-12T02:12:35;-20807.34;;;-144.41;100.00
41684;BME280;27369;52.030;4.586;2022-09-12T02:15:06;-20807.34;;;-144.41;100.00
41684;BME280;27369;52.030;4.586;2022-09-12T02:17:37;-20807.34;;;-144.41;100.00
41684;BME280;27369;52.030;4.586;2022-09-12T02:20:09;-20807.34;;;-144.41;100.00
41684;BME280;27369;52.030;4.586;2022-09-12T02:22:37;-20807.34;;;-144.41;100.00
41684;BME280;27369;52.030;4.586;2022-09-12T02:25:04;-20807.34;;;-144.41;100.00
41684;BME280;27369;52.030;4.586;2022-09-12T02:27:37;-20807.34;;;-144.41;100.00
41684;BME280;27369;52.030;4.586;2022-09-12T02:30:05;-20807.34;;;-144.41;100.00
41684;BME280;27369;52.030;4.586;2022-09-12T02:35:46;-20807.34;;;-144.41;100.00
41684;BME280;27369;52.030;4.586;2022-09-12T02:38:26;-20807.34;;;-144.41;100.00
41684;BME280;27369;52.030;4.586;2022-09-12T02:40:54;-20807.34;;;-144.41;100.00
41684;BME280;27369;52.030;4.586;2022-09-12T02:43:20;-20807.34;;;-144.41;100.00
41684;BME280;27369;52.030;4.586;2022-09-12T02:45:45;-20807.34;;;-144.41;100.00
41684;BME280;27369;52.030;4.586;2022-09-12T02:48:18;-20807.34;;;-144.41;100.00
41684;BME280;27369;52.030;4.586;2022-09-12T02:50:46;-20807.34;;;-144.41;100.00
41684;BME280;27369;52.030;4.586;2022-09-12T02:53:11;-20807.34;;;-144.41;100.00
41684;BME280;27369;52.030;4.586;2022-09-12T02:55:39;-20807.34;;;-144.41;100.00
41684;BME280;27369;52.030;4.586;2022-09-12T02:58:09;-20807.34;;;-144.41;100.00
41684;BME280;27369;52.030;4.586;2022-09-12T03:01:07;-20807.34;;;-144.41;100.00
41684;BME280;27369;52.030;4.586;2022-09-12T03:03:56;-20807.34;;;-144.41;100.00
41684;BME280;27369;52.030;4.586;2022-09-12T03:06:58;-20807.34;;;-144.41;100.00
41684;BME280;27369;52.030;4.586;2022-09-12T03:10:19;-20807.34;;;-144.41;100.00
41684;BME280;27369;52.030;4.586;2022-09-12T03:16:45;-20807.34;;;-144.41;100.00
41684;BME280;27369;52.030;4.586;2022-09-12T03:18:51;-20807.34;;;-144.41;100.00
41684;BME280;27369;52.030;4.586;2022-09-12T03:21:27;-20807.34;;;-144.41;100.00
41684;BME280;27369;52.030;4.586;2022-09-12T03:26:37;-20807.34;;;-144.41;100.00
41684;BME280;27369;52.030;4.586;2022-09-12T03:29:05;-20807.34;;;-144.41;100.00
41684;BME280;27369;52.030;4.586;2022-09-12T03:31:32;-20807.34;;;-144.41;100.00
41684;BME280;27369;52.030;4.586;2022-09-12T03:34:01;-20807.34;;;-144.41;100.00
41684;BME280;27369;52.030;4.586;2022-09-12T03:36:28;-20807.34;;;-144.41;100.00
41684;BME280;27369;52.030;4.586;2022-09-12T03:38:54;-20807.34;;;-144.41;100.00
41684;BME280;27369;52.030;4.586;2022-09-12T03:41:19;-20807.34;;;-144.41;100.00
41684;BME280;27369;52.030;4.586;2022-09-12T03:43:45;-20807.34;;;-144.41;100.00
41684;BME280;27369;52.030;4.586;2022-09-12T03:46:11;-20807.34;;;-144.41;100.00
41684;BME280;27369;52.030;4.586;2022-09-12T03:48:38;-20807.34;;;-144.41;100.00
41684;BME280;27369;52.030;4.586;2022-09-12T03:51:06;-20807.34;;;-144.41;100.00
41684;BME280;27369;52.030;4.586;2022-09-12T03:53:31;-20807.34;;;-144.41;100.00
41684;BME280;27369;52.030;4.586;2022-09-12T03:55:58;-20807.34;;;-144.41;100.00
41684;BME280;27369;52.030;4.586;2022-09-12T03:58:24;-20807.34;;;-144.41;100.00
41684;BME280;27369;52.030;4.586;2022-09-12T04:00:49;-20807.34;;;-144.41;100.00
41684;BME280;27369;52.030;4.586;2022-09-12T04:03:15;-20807.34;;;-144.41;100.00
41684;BME280;27369;52.030;4.586;2022-09-12T04:05:41;-20807.34;;;-144.41;100.00
41684;BME280;27369;52.030;4.586;2022-09-12T04:08:06;-20807.34;;;-144.41;100.00
41684;BME280;27369;52.030;4.586;2022-09-12T04:10:32;-20807.34;;;-144.41;100.00
41684;BME280;27369;52.030;4.586;2022-09-12T04:12:57;-20807.34;;;-144.41;100.00
41684;BME280;27369;52.030;4.586;2022-09-12T04:15:23;-20807.34;;;-144.41;100.00
41684;BME280;27369;52.030;4.586;2022-09-12T04:17:48;-20807.34;;;-144.41;100.00
41684;BME280;27369;52.030;4.586;2022-09-12T04:20:15;-20807.34;;;-144.41;100.00
41684;BME280;27369;52.030;4.586;2022-09-12T04:22:40;-20807.34;;;-144.41;100.00
41684;BME280;27369;52.030;4.586;2022-09-12T04:25:06;-20807.34;;;-144.41;100.00
41684;BME280;27369;52.030;4.586;2022-09-12T04:27:32;-20807.34;;;-144.41;100.00
41684;BME280;27369;52.030;4.586;2022-09-12T04:29:59;-20807.34;;;-144.41;100.00
41684;BME280;27369;52.030;4.586;2022-09-12T04:32:24;-20807.34;;;-144.41;100.00
41684;BME280;27369;52.030;4.586;2022-09-12T04:34:49;-20807.34;;;-144.41;100.00
41684;BME280;27369;52.030;4.586;2022-09-12T04:37:16;-20807.34;;;-144.41;100.00
41684;BME280;27369;52.030;4.586;2022-09-12T04:39:42;-20807.34;;;-144.41;100.00
41684;BME280;27369;52.030;4.586;2022-09-12T04:42:07;-20807.34;;;-144.41;100.00
41684;BME280;27369;52.030;4.586;2022-09-12T04:44:32;-20807.34;;;-144.41;100.00
41684;BME280;27369;52.030;4.586;2022-09-12T04:46:58;-20807.34;;;-144.41;100.00
41684;BME280;27369;52.030;4.586;2022-09-12T04:49:23;-20807.34;;;-144.41;100.00
41684;BME280;27369;52.030;4.586;2022-09-12T04:51:52;-20807.34;;;-144.41;100.00
41684;BME280;27369;52.030;4.586;2022-09-12T04:54:18;-20807.34;;;-144.41;100.00
41684;BME280;27369;52.030;4.586;2022-09-12T04:56:46;-20807.34;;;-144.41;100.00
41684;BME280;27369;52.030;4.586;2022-09-12T04:59:14;-20807.34;;;-144.41;100.00
41684;BME280;27369;52.030;4.586;2022-09-12T05:01:40;-20807.34;;;-144.41;100.00
41684;BME280;27369;52.030;4.586;2022-09-12T05:04:06;-20807.34;;;-144.41;100.00
41684;BME280;27369;52.030;4.586;2022-09-12T05:06:33;-20807.34;;;-144.41;100.00
41684;BME280;27369;52.030;4.586;2022-09-12T05:09:00;-20807.34;;;-144.41;100.00
41684;BME280;27369;52.030;4.586;2022-09-12T05:11:29;-20807.34;;;-144.41;100.00
41684;BME280;27369;52.030;4.586;2022-09-12T05:13:55;-20807.34;;;-144.41;100.00
41684;BME280;27369;52.030;4.586;2022-09-12T05:16:21;-20807.34;;;-144.41;100.00
41684;BME280;27369;52.030;4.586;2022-09-12T05:18:48;-20807.34;;;-144.41;100.00
41684;BME280;27369;52.030;4.586;2022-09-12T05:21:16;-20807.34;;;-144.41;100.00
41684;BME280;27369;52.030;4.586;2022-09-12T05:23:42;-20807.34;;;-144.41;100.00
41684;BME280;27369;52.030;4.586;2022-09-12T05:26:11;-20807.34;;;-144.41;100.00
41684;BME280;27369;52.030;4.586;2022-09-12T05:28:37;-20807.34;;;-144.41;100.00
41684;BME280;27369;52.030;4.586;2022-09-12T05:33:29;-20807.34;;;-144.41;100.00
41684;BME280;27369;52.030;4.586;2022-09-12T05:35:55;-20807.34;;;-144.41;100.00
41684;BME280;27369;52.030;4.586;2022-09-12T05:38:21;-20807.34;;;-144.41;100.00
41684;BME280;27369;52.030;4.586;2022-09-12T05:40:49;-20807.34;;;-144.41;100.00
41684;BME280;27369;52.030;4.586;2022-09-12T05:43:15;-20807.34;;;-144.41;100.00
41684;BME280;27369;52.030;4.586;2022-09-12T05:45:40;-20807.34;;;-144.41;100.00
41684;BME280;27369;52.030;4.586;2022-09-12T05:48:06;-20807.34;;;-144.41;100.00
41684;BME280;27369;52.030;4.586;2022-09-12T05:50:33;-20807.34;;;-144.41;100.00
41684;BME280;27369;52.030;4.586;2022-09-12T05:52:59;-20807.34;;;-144.41;100.00
41684;BME280;27369;52.030;4.586;2022-09-12T05:55:25;-20807.34;;;-144.41;100.00
41684;BME280;27369;52.030;4.586;2022-09-12T05:57:50;-20807.34;;;-144.41;100.00
41684;BME280;27369;52.030;4.586;2022-09-12T06:00:16;-20807.34;;;-144.41;100.00
41684;BME280;27369;52.030;4.586;2022-09-12T06:02:43;-20807.34;;;-144.41;100.00
41684;BME280;27369;52.030;4.586;2022-09-12T06:05:09;-20807.34;;;-144.41;100.00
41684;BME280;27369;52.030;4.586;2022-09-12T06:07:34;-20807.34;;;-144.41;100.00
41684;BME280;27369;52.030;4.586;2022-09-12T06:10:01;-20807.34;;;-144.41;100.00
41684;BME280;27369;52.030;4.586;2022-09-12T06:12:28;-20807.34;;;-144.41;100.00
41684;BME280;27369;52.030;4.586;2022-09-12T06:14:54;-20807.34;;;-144.41;100.00
41684;BME280;27369;52.030;4.586;2022-09-12T06:17:19;-20807.34;;;-144.41;100.00
41684;BME280;27369;52.030;4.586;2022-09-12T06:19:46;-20807.34;;;-144.41;100.00
41684;BME280;27369;52.030;4.586;2022-09-12T06:22:12;-20807.34;;;-144.41;100.00
41684;BME280;27369;52.030;4.586;2022-09-12T06:24:38;-20807.34;;;-144.41;100.00
41684;BME280;27369;52.030;4.586;2022-09-12T06:27:04;-20807.34;;;-144.41;100.00
41684;BME280;27369;52.030;4.586;2022-09-12T06:29:30;-20807.34;;;-144.41;100.00
41684;BME280;27369;52.030;4.586;2022-09-12T06:31:57;-20807.34;;;-144.41;100.00
41684;BME280;27369;52.030;4.586;2022-09-12T06:34:23;-20807.34;;;-144.41;100.00
41684;BME280;27369;52.030;4.586;2022-09-12T06:36:51;-20807.34;;;-144.41;100.00
41684;BME280;27369;52.030;4.586;2022-09-12T06:39:19;-20807.34;;;-144.41;100.00
41684;BME280;27369;52.030;4.586;2022-09-12T06:41:46;-20807.34;;;-144.41;100.00
41684;BME280;27369;52.030;4.586;2022-09-12T06:44:19;-20807.34;;;-144.41;100.00
41684;BME280;27369;52.030;4.586;2022-09-12T06:46:45;-20807.34;;;-144.41;100.00
41684;BME280;27369;52.030;4.586;2022-09-12T06:49:11;-20807.34;;;-144.41;100.00
41684;BME280;27369;52.030;4.586;2022-09-12T06:51:37;-20807.34;;;-144.41;100.00
41684;BME280;27369;52.030;4.586;2022-09-12T06:54:03;-20807.34;;;-144.41;100.00
41684;BME280;27369;52.030;4.586;2022-09-12T06:56:29;-20807.34;;;-144.41;100.00
41684;BME280;27369;52.030;4.586;2022-09-12T06:58:56;-20807.34;;;-144.41;100.00
41684;BME280;27369;52.030;4.586;2022-09-12T07:01:27;-20807.34;;;-144.41;100.00
41684;BME280;27369;52.030;4.586;2022-09-12T07:03:57;-20807.34;;;-144.41;100.00
41684;BME280;27369;52.030;4.586;2022-09-12T07:06:34;-20807.34;;;-144.41;100.00
41684;BME280;27369;52.030;4.586;2022-09-12T07:09:05;-20807.34;;;-144.41;100.00
41684;BME280;27369;52.030;4.586;2022-09-12T07:11:35;-20807.34;;;-144.41;100.00
41684;BME280;27369;52.030;4.586;2022-09-12T07:14:02;-20807.34;;;-144.41;100.00
41684;BME280;27369;52.030;4.586;2022-09-12T07:16:28;-20807.34;;;-144.41;100.00
41684;BME280;27369;52.030;4.586;2022-09-12T07:18:59;-20807.34;;;-144.41;100.00
41684;BME280;27369;52.030;4.586;2022-09-12T07:21:26;-20807.34;;;-144.41;100.00
41684;BME280;27369;52.030;4.586;2022-09-12T07:23:51;-20807.34;;;-144.41;100.00
41684;BME280;27369;52.030;4.586;2022-09-12T07:26:19;-20807.34;;;-144.41;100.00
41684;BME280;27369;52.030;4.586;2022-09-12T07:28:49;-20807.34;;;-144.41;100.00
41684;BME280;27369;52.030;4.586;2022-09-12T07:31:17;-20807.34;;;-144.41;100.00
41684;BME280;27369;52.030;4.586;2022-09-12T07:33:43;-20807.34;;;-144.41;100.00
41684;BME280;27369;52.030;4.586;2022-09-12T07:36:13;-20807.34;;;-144.41;100.00
41684;BME280;27369;52.030;4.586;2022-09-12T07:38:40;-20807.34;;;-144.41;100.00
41684;BME280;27369;52.030;4.586;2022-09-12T07:41:14;-20807.34;;;-144.41;100.00
41684;BME280;27369;52.030;4.586;2022-09-12T07:43:39;-20807.34;;;-144.41;100.00
41684;BME280;27369;52.030;4.586;2022-09-12T07:46:06;-20807.34;;;-144.41;100.00
41684;BME280;27369;52.030;4.586;2022-09-12T07:48:32;-20807.34;;;-144.41;100.00
41684;BME280;27369;52.030;4.586;2022-09-12T07:51:02;-20807.34;;;-144.41;100.00
41684;BME280;27369;52.030;4.586;2022-09-12T07:53:33;-20807.34;;;-144.41;100.00
41684;BME280;27369;52.030;4.586;2022-09-12T07:55:58;-20807.34;;;-144.41;100.00
41684;BME280;27369;52.030;4.586;2022-09-12T07:58:24;-20807.34;;;-144.41;100.00
41684;BME280;27369;52.030;4.586;2022-09-12T08:00:49;-20807.34;;;-144.41;100.00
41684;BME280;27369;52.030;4.586;2022-09-12T08:03:15;-20807.34;;;-144.41;100.00
41684;BME280;27369;52.030;4.586;2022-09-12T08:05:40;-20807.34;;;-144.41;100.00
41684;BME280;27369;52.030;4.586;2022-09-12T08:08:06;-20807.34;;;-144.41;100.00
41684;BME280;27369;52.030;4.586;2022-09-12T08:10:31;-20807.34;;;-144.41;100.00
41684;BME280;27369;52.030;4.586;2022-09-12T08:12:57;-20807.34;;;-144.41;100.00
41684;BME280;27369;52.030;4.586;2022-09-12T08:15:22;-20807.34;;;-144.41;100.00
41684;BME280;27369;52.030;4.586;2022-09-12T08:17:47;-20807.34;;;-144.41;100.00
41684;BME280;27369;52.030;4.586;2022-09-12T08:20:13;-20807.34;;;-144.41;100.00
41684;BME280;27369;52.030;4.586;2022-09-12T08:22:38;-20807.34;;;-144.41;100.00
41684;BME280;27369;52.030;4.586;2022-09-12T08:25:05;-20807.34;;;-144.41;100.00
41684;BME280;27369;52.030;4.586;2022-09-12T08:27:31;-20807.34;;;-144.41;100.00
41684;BME280;27369;52.030;4.586;2022-09-12T08:29:56;-20807.34;;;-144.41;100.00
41684;BME280;27369;52.030;4.586;2022-09-12T08:32:21;-20807.34;;;-144.41;100.00
41684;BME280;27369;52.030;4.586;2022-09-12T08:34:47;-20807.34;;;-144.41;100.00
41684;BME280;27369;52.030;4.586;2022-09-12T08:37:12;-20807.34;;;-144.41;100.00
41684;BME280;27369;52.030;4.586;2022-09-12T08:39:37;-20807.34;;;-144.41;100.00
41684;BME280;27369;52.030;4.586;2022-09-12T08:42:04;-20807.34;;;-144.41;100.00
41684;BME280;27369;52.030;4.586;2022-09-12T08:47:24;-20807.34;;;-144.41;100.00
41684;BME280;27369;52.030;4.586;2022-09-12T08:55:28;-20807.34;;;-144.41;100.00
41684;BME280;27369;52.030;4.586;2022-09-12T08:57:56;-20807.34;;;-144.41;100.00
41684;BME280;27369;52.030;4.586;2022-09-12T09:00:22;-20807.34;;;-144.41;100.00
41684;BME280;27369;52.030;4.586;2022-09-12T09:11:05;-20807.34;;;-144.41;100.00
41684;BME280;27369;52.030;4.586;2022-09-12T09:16:30;-20807.34;;;-144.41;100.00
41684;BME280;27369;52.030;4.586;2022-09-12T09:19:03;-20807.34;;;-144.41;100.00
41684;BME280;27369;52.030;4.586;2022-09-12T09:24:16;-20807.34;;;-144.41;100.00
41684;BME280;27369;52.030;4.586;2022-09-12T09:26:48;-20807.34;;;-144.41;100.00
41684;BME280;27369;52.030;4.586;2022-09-12T09:29:22;-20807.34;;;-144.41;100.00
41684;BME280;27369;52.030;4.586;2022-09-12T09:31:52;-20807.34;;;-144.41;100.00
41684;BME280;27369;52.030;4.586;2022-09-12T09:34:21;-20807.34;;;-144.41;100.00
41684;BME280;27369;52.030;4.586;2022-09-12T09:42:39;-20807.34;;;-144.41;100.00
41684;BME280;27369;52.030;4.586;2022-09-12T09:45:19;-20807.34;;;-144.41;100.00
41684;BME280;27369;52.030;4.586;2022-09-12T09:47:59;-20807.34;;;-144.41;100.00
41684;BME280;27369;52.030;4.586;2022-09-12T09:50:27;-20807.34;;;-144.41;100.00
41684;BME280;27369;52.030;4.586;2022-09-12T09:52:55;-20807.34;;;-144.41;100.00
41684;BME280;27369;52.030;4.586;2022-09-12T09:55:29;-20807.34;;;-144.41;100.00
41684;BME280;27369;52.030;4.586;2022-09-12T09:57:57;-20807.34;;;-144.41;100.00
41684;BME280;27369;52.030;4.586;2022-09-12T10:03:24;-20807.34;;;-144.41;100.00
41684;BME280;27369;52.030;4.586;2022-09-12T10:06:01;-20807.34;;;-144.41;100.00
41684;BME280;27369;52.030;4.586;2022-09-12T10:08:30;-20807.34;;;-144.41;100.00
41684;BME280;27369;52.030;4.586;2022-09-12T10:10:59;-20807.34;;;-144.41;100.00
41684;BME280;27369;52.030;4.586;2022-09-12T10:13:40;-20807.34;;;-144.41;100.00
41684;BME280;27369;52.030;4.586;2022-09-12T10:16:23;-20807.34;;;-144.41;100.00
41684;BME280;27369;52.030;4.586;2022-09-12T10:18:50;-20807.34;;;-144.41;100.00
41684;BME280;27369;52.030;4.586;2022-09-12T10:21:53;-20807.34;;;-144.41;100.00
41684;BME280;27369;52.030;4.586;2022-09-12T10:24:32;-20807.34;;;-144.41;100.00
41684;BME280;27369;52.030;4.586;2022-09-12T10:27:08;-20807.34;;;-144.41;100.00
41684;BME280;27369;52.030;4.586;2022-09-12T10:29:41;-20807.34;;;-144.41;100.00
41684;BME280;27369;52.030;4.586;2022-09-12T10:32:11;-20807.34;;;-144.41;100.00
41684;BME280;27369;52.030;4.586;2022-09-12T10:34:42;-20807.34;;;-144.41;100.00
41684;BME280;27369;52.030;4.586;2022-09-12T10:37:18;-20807.34;;;-144.41;100.00
41684;BME280;27369;52.030;4.586;2022-09-12T10:39:55;-20807.34;;;-144.41;100.00
41684;BME280;27369;52.030;4.586;2022-09-12T10:45:20;-20807.34;;;-144.41;100.00
41684;BME280;27369;52.030;4.586;2022-09-12T10:47:47;-20807.34;;;-144.41;100.00
41684;BME280;27369;52.030;4.586;2022-09-12T10:50:35;-20807.34;;;-144.41;100.00
41684;BME280;27369;52.030;4.586;2022-09-12T10:53:23;-20807.34;;;-144.41;100.00
41684;BME280;27369;52.030;4.586;2022-09-12T10:56:15;-20807.34;;;-144.41;100.00
41684;BME280;27369;52.030;4.586;2022-09-12T11:07:12;-20807.34;;;-144.41;100.00
41684;BME280;27369;52.030;4.586;2022-09-12T11:09:53;-20807.34;;;-144.41;100.00
41684;BME280;27369;52.030;4.586;2022-09-12T11:42:55;-20807.34;;;-144.41;100.00
41684;BME280;27369;52.030;4.586;2022-09-12T11:45:35;-20807.34;;;-144.41;100.00
41684;BME280;27369;52.030;4.586;2022-09-12T11:48:06;-20807.34;;;-144.41;100.00
41684;BME280;27369;52.030;4.586;2022-09-12T11:50:35;-20807.34;;;-144.41;100.00
41684;BME280;27369;52.030;4.586;2022-09-12T11:53:12;-20807.34;;;-144.41;100.00
41684;BME280;27369;52.030;4.586;2022-09-12T11:55:50;-20807.34;;;-144.41;100.00
41684;BME280;27369;52.030;4.586;2022-09-12T11:58:19;-20308.47;;;-144.41;100.00
41684;BME280;27369;52.030;4.586;2022-09-12T12:00:49;-19313.44;;;-144.41;100.00
41684;BME280;27369;52.030;4.586;2022-09-12T12:03:54;-17571.56;;;-144.41;100.00
41684;BME280;27369;52.030;4.586;2022-09-12T12:06:29;-14334.47;;;-144.41;100.00
41684;BME280;27369;52.030;4.586;2022-09-12T12:08:55;-12091.84;;;-144.41;100.00
41684;BME280;27369;52.030;4.586;2022-09-12T12:11:31;-9598.44;;;-144.41;100.00
41684;BME280;27369;52.030;4.586;2022-09-12T12:16:32;-2858.22;;;-144.41;100.00
41684;BME280;27369;52.030;4.586;2022-09-12T12:19:00;-358.84;;;-144.41;100.00
41684;BME280;27369;52.030;4.586;2022-09-12T12:21:36;3643.53;;;-144.41;100.00
41684;BME280;27369;52.030;4.586;2022-09-12T12:29:10;18438.25;;;-144.41;100.00
41684;BME280;27369;52.030;4.586;2022-09-12T12:36:56;36821.72;;;-144.41;100.00
41684;BME280;27369;52.030;4.586;2022-09-12T12:42:07;49209.81;;;-144.41;100.00
41684;BME280;27369;52.030;4.586;2022-09-12T12:47:20;64094.41;;;-144.41;100.00
41684;BME280;27369;52.030;4.586;2022-09-12T12:49:51;68443.44;;;-144.41;100.00
41684;BME280;27369;52.030;4.586;2022-09-12T12:52:18;71378.59;;;-144.41;100.00
41684;BME280;27369;52.030;4.586;2022-09-12T12:57:26;77819.19;;;-144.41;100.00
41684;BME280;27369;52.030;4.586;2022-09-12T12:59:57;80322.59;;;-144.41;100.00
41684;BME280;27369;52.030;4.586;2022-09-12T13:02:32;81283.69;;;-144.41;100.00
41684;BME280;27369;52.030;4.586;2022-09-12T13:05:02;81933.88;;;-144.41;100.00
41684;BME280;27369;52.030;4.586;2022-09-12T13:07:33;81989.72;;;-144.41;100.00
41684;BME280;27369;52.030;4.586;2022-09-12T13:10:02;82087.47;;;-144.41;100.00
41684;BME280;27369;52.030;4.586;2022-09-12T13:12:34;82366.72;;;-144.41;100.00
41684;BME280;27369;52.030;4.586;2022-09-12T13:15:04;82247.03;;;-144.41;100.00
41684;BME280;27369;52.030;4.586;2022-09-12T13:17:49;82308.88;;;-144.41;100.00
41684;BME280;27369;52.030;4.586;2022-09-12T13:20:35;82312.84;;;-144.41;100.00
41684;BME280;27369;52.030;4.586;2022-09-12T13:23:02;82388.66;;;-144.41;100.00
41684;BME280;27369;52.030;4.586;2022-09-12T13:25:29;82408.59;;;-144.41;100.00
41684;BME280;27369;52.030;4.586;2022-09-12T13:27:56;82520.31;;;-144.41;100.00
41684;BME280;27369;52.030;4.586;2022-09-12T13:30:21;82552.22;;;-144.41;100.00
41684;BME280;27369;52.030;4.586;2022-09-12T13:32:47;82532.28;;;-144.41;100.00
41684;BME280;27369;52.030;4.586;2022-09-12T13:35:20;82532.28;;;-144.41;100.00
41684;BME280;27369;52.030;4.586;2022-09-12T13:37:56;82460.47;;;-144.41;100.00
41684;BME280;27369;52.030;4.586;2022-09-12T13:43:15;82458.47;;;-144.41;100.00
41684;BME280;27369;52.030;4.586;2022-09-12T13:45:44;82358.75;;;-144.41;100.00
41684;BME280;27369;52.030;4.586;2022-09-12T13:48:20;82342.78;;;-144.41;100.00
41684;BME280;27369;52.030;4.586;2022-09-12T13:50:57;82284.94;;;-144.41;100.00
41684;BME280;27369;52.030;4.586;2022-09-12T13:53:27;82217.13;;;-144.41;100.00
41684;BME280;27369;52.030;4.586;2022-09-12T13:55:57;82243.03;;;-144.41;100.00
41684;BME280;27369;52.030;4.586;2022-09-12T13:58:27;82237.06;;;-144.41;100.00
41684;BME280;27369;52.030;4.586;2022-09-12T14:01:01;82211.13;;;-144.41;100.00
41684;BME280;27369;52.030;4.586;2022-09-12T14:03:29;82115.38;;;-144.41;100.00
41684;BME280;27369;52.030;4.586;2022-09-12T14:06:15;82109.41;;;-144.41;100.00
41684;BME280;27369;52.030;4.586;2022-09-12T14:08:42;82111.41;;;-144.41;100.00
41684;BME280;27369;52.030;4.586;2022-09-12T14:11:09;82097.44;;;-144.41;100.00
41684;BME280;27369;52.030;4.586;2022-09-12T14:13:36;82021.63;;;-144.41;100.00
41684;BME280;27369;52.030;4.586;2022-09-12T14:16:04;82025.63;;;-144.41;100.00
41684;BME280;27369;52.030;4.586;2022-09-12T14:18:36;82053.56;;;-144.41;100.00
41684;BME280;27369;52.030;4.586;2022-09-12T14:21:10;82021.63;;;-144.41;100.00
41684;BME280;27369;52.030;4.586;2022-09-12T14:23:42;81997.69;;;-144.41;100.00
41684;BME280;27369;52.030;4.586;2022-09-12T14:26:11;82013.66;;;-144.41;100.00
41684;BME280;27369;52.030;4.586;2022-09-12T14:28:41;81937.88;;;-144.41;100.00
41684;BME280;27369;52.030;4.586;2022-09-12T14:33:50;81981.75;;;-144.41;100.00
41684;BME280;27369;52.030;4.586;2022-09-12T14:39:16;81893.97;;;-144.41;100.00
41684;BME280;27369;52.030;4.586;2022-09-12T14:41:42;81836.16;;;-144.41;100.00
41684;BME280;27369;52.030;4.586;2022-09-12T14:44:16;81810.22;;;-144.41;100.00
41684;BME280;27369;52.030;4.586;2022-09-12T14:46:42;81790.28;;;-144.41;100.00
41684;BME280;27369;52.030;4.586;2022-09-12T14:49:25;81732.44;;;-144.41;100.00
41684;BME280;27369;52.030;4.586;2022-09-12T14:51:55;81678.56;;;-144.41;100.00
41684;BME280;27369;52.030;4.586;2022-09-12T14:54:39;81712.47;;;-144.41;100.00
41684;BME280;27369;52.030;4.586;2022-09-12T15:00:05;81630.72;;;-144.41;100.00